sensor_id;sensor_type;location;lat;lon;timestamp;temperature;humidity
38209;DHT22;24016;52.102;11.584;2023-03-03T00:00:26;-1.10;99.90
38209;DHT22;24016;52.102;11.584;2023-03-03T00:02:52;-1.10;99.90
38209;DHT22;24016;52.102;11.584;2023-03-03T00:05:17;-1.20;99.90
38209;DHT22;24016;52.102;11.584;2023-03-03T00:07:44;-1.20;99.90
38209;DHT22;24016;52.102;11.584;2023-03-03T00:10:10;-1.20;99.90
38209;DHT22;24016;52.102;11.584;2023-03-03T00:12:48;-1.20;99.90
38209;DHT22;24016;52.102;11.584;2023-03-03T00:15:16;-1.20;99.90
38209;DHT22;24016;52.102;11.584;2023-03-03T00:17:42;-1.20;99.90
38209;DHT22;24016;52.102;11.584;2023-03-03T00:20:29;-1.30;99.90
38209;DHT22;24016;52.102;11.584;2023-03-03T00:22:57;-1.20;99.90
38209;DHT22;24016;52.102;11.584;2023-03-03T00:25:32;-1.20;99.90
38209;DHT22;24016;52.102;11.584;2023-03-03T00:28:23;-1.10;99.90
38209;DHT22;24016;52.102;11.584;2023-03-03T00:30:51;-1.20;99.90
38209;DHT22;24016;52.102;11.584;2023-03-03T00:35:55;-1.20;99.90
38209;DHT22;24016;52.102;11.584;2023-03-03T00:38:21;-1.20;99.90
38209;DHT22;24016;52.102;11.584;2023-03-03T00:40:47;-1.10;99.90
38209;DHT22;24016;52.102;11.584;2023-03-03T00:43:23;-1.10;99.90
38209;DHT22;24016;52.102;11.584;2023-03-03T00:45:56;-1.10;99.90
38209;DHT22;24016;52.102;11.584;2023-03-03T00:48:27;-1.10;99.90
38209;DHT22;24016;52.102;11.584;2023-03-03T00:50:55;-1.00;99.90
38209;DHT22;24016;52.102;11.584;2023-03-03T00:53:23;-1.10;99.90
38209;DHT22;24016;52.102;11.584;2023-03-03T00:55:51;-1.00;99.90
38209;DHT22;24016;52.102;11.584;2023-03-03T00:58:18;-1.00;99.90
38209;DHT22;24016;52.102;11.584;2023-03-03T01:00:49;-1.00;99.90
38209;DHT22;24016;52.102;11.584;2023-03-03T01:03:21;-1.00;99.90
38209;DHT22;24016;52.102;11.584;2023-03-03T01:05:48;-1.00;99.90
38209;DHT22;24016;52.102;11.584;2023-03-03T01:08:14;-1.00;99.90
38209;DHT22;24016;52.102;11.584;2023-03-03T01:10:47;-0.90;99.90
38209;DHT22;24016;52.102;11.584;2023-03-03T01:13:16;-0.90;99.90
38209;DHT22;24016;52.102;11.584;2023-03-03T01:15:42;-0.90;99.90
38209;DHT22;24016;52.102;11.584;2023-03-03T01:18:09;-0.90;99.90
38209;DHT22;24016;52.102;11.584;2023-03-03T01:20:35;-0.90;99.90
38209;DHT22;24016;52.102;11.584;2023-03-03T01:23:01;-0.90;99.90
38209;DHT22;24016;52.102;11.584;2023-03-03T01:25:26;-0.90;99.90
38209;DHT22;24016;52.102;11.584;2023-03-03T01:27:52;-0.80;99.90
38209;DHT22;24016;52.102;11.584;2023-03-03T01:30:17;-0.80;99.90
38209;DHT22;24016;52.102;11.584;2023-03-03T01:32:43;-0.80;99.90
38209;DHT22;24016;52.102;11.584;2023-03-03T01:35:09;-0.80;99.90
38209;DHT22;24016;52.102;11.584;2023-03-03T01:37:35;-0.80;99.90
38209;DHT22;24016;52.102;11.584;2023-03-03T01:40:02;-0.80;99.90
38209;DHT22;24016;52.102;11.584;2023-03-03T01:42:28;-0.80;99.90
38209;DHT22;24016;52.102;11.584;2023-03-03T01:45:14;-0.80;99.90
38209;DHT22;24016;52.102;11.584;2023-03-03T01:48:05;-0.80;99.90
38209;DHT22;24016;52.102;11.584;2023-03-03T01:50:54;-0.80;99.90
38209;DHT22;24016;52.102;11.584;2023-03-03T01:53:38;-0.80;99.90
38209;DHT22;24016;52.102;11.584;2023-03-03T01:56:07;-0.80;99.90
38209;DHT22;24016;52.102;11.584;2023-03-03T01:58:44;-0.80;99.90
38209;DHT22;24016;52.102;11.584;2023-03-03T02:01:15;-0.80;99.90
38209;DHT22;24016;52.102;11.584;2023-03-03T02:03:42;-0.70;99.90
38209;DHT22;24016;52.102;11.584;2023-03-03T02:06:19;-0.70;99.90
38209;DHT22;24016;52.102;11.584;2023-03-03T02:09:10;-0.70;99.90
38209;DHT22;24016;52.102;11.584;2023-03-03T02:11:37;-0.70;99.90
38209;DHT22;24016;52.102;11.584;2023-03-03T02:14:04;-0.70;99.90
38209;DHT22;24016;52.102;11.584;2023-03-03T02:16:30;-0.70;99.90
38209;DHT22;24016;52.102;11.584;2023-03-03T02:18:56;-0.70;99.90
38209;DHT22;24016;52.102;11.584;2023-03-03T02:21:24;-0.60;99.90
38209;DHT22;24016;52.102;11.584;2023-03-03T02:24:02;-0.60;99.90
38209;DHT22;24016;52.102;11.584;2023-03-03T02:26:33;-0.60;99.90
38209;DHT22;24016;52.102;11.584;2023-03-03T02:29:00;-0.60;99.90
38209;DHT22;24016;52.102;11.584;2023-03-03T02:33:52;-0.60;99.90
38209;DHT22;24016;52.102;11.584;2023-03-03T02:36:23;-0.60;99.90
38209;DHT22;24016;52.102;11.584;2023-03-03T02:39:15;-0.60;99.90
38209;DHT22;24016;52.102;11.584;2023-03-03T02:41:57;-0.60;99.90
38209;DHT22;24016;52.102;11.584;2023-03-03T02:44:25;-0.50;99.90
38209;DHT22;24016;52.102;11.584;2023-03-03T02:46:53;-0.50;99.90
38209;DHT22;24016;52.102;11.584;2023-03-03T02:49:22;-0.60;99.90
38209;DHT22;24016;52.102;11.584;2023-03-03T02:51:48;-0.50;99.90
38209;DHT22;24016;52.102;11.584;2023-03-03T02:54:16;-0.50;99.90
38209;DHT22;24016;52.102;11.584;2023-03-03T02:56:42;-0.50;99.90
38209;DHT22;24016;52.102;11.584;2023-03-03T02:59:08;-0.50;99.90
38209;DHT22;24016;52.102;11.584;2023-03-03T03:01:34;-0.50;99.90
38209;DHT22;24016;52.102;11.584;2023-03-03T03:04:24;-0.50;99.90
38209;DHT22;24016;52.102;11.584;2023-03-03T03:06:50;-0.50;99.90
38209;DHT22;24016;52.102;11.584;2023-03-03T03:09:17;-0.50;99.90
38209;DHT22;24016;52.102;11.584;2023-03-03T03:11:43;-0.50;99.90
38209;DHT22;24016;52.102;11.584;2023-03-03T03:14:10;-0.50;99.90
38209;DHT22;24016;52.102;11.584;2023-03-03T03:16:36;-0.60;99.90
38209;DHT22;24016;52.102;11.584;2023-03-03T03:19:03;-0.50;99.90
38209;DHT22;24016;52.102;11.584;2023-03-03T03:21:29;-0.50;99.90
38209;DHT22;24016;52.102;11.584;2023-03-03T03:23:55;-0.50;99.90
38209;DHT22;24016;52.102;11.584;2023-03-03T03:26:21;-0.50;99.90
38209;DHT22;24016;52.102;11.584;2023-03-03T03:28:47;-0.50;99.90
38209;DHT22;24016;52.102;11.584;2023-03-03T03:31:13;-0.50;99.90
38209;DHT22;24016;52.102;11.584;2023-03-03T03:33:39;-0.60;99.90
38209;DHT22;24016;52.102;11.584;2023-03-03T03:36:05;-0.40;99.90
38209;DHT22;24016;52.102;11.584;2023-03-03T03:38:32;-0.40;99.90
38209;DHT22;24016;52.102;11.584;2023-03-03T03:40:58;-0.40;99.90
38209;DHT22;24016;52.102;11.584;2023-03-03T03:43:24;-0.40;99.90
38209;DHT22;24016;52.102;11.584;2023-03-03T03:45:49;-0.50;99.90
38209;DHT22;24016;52.102;11.584;2023-03-03T03:48:15;-0.40;99.90
38209;DHT22;24016;52.102;11.584;2023-03-03T03:50:41;-0.50;99.90
38209;DHT22;24016;52.102;11.584;2023-03-03T03:53:07;-0.40;99.90
38209;DHT22;24016;52.102;11.584;2023-03-03T03:55:33;-0.40;99.90
38209;DHT22;24016;52.102;11.584;2023-03-03T03:57:58;-0.30;99.90
38209;DHT22;24016;52.102;11.584;2023-03-03T04:00:24;-0.40;99.90
38209;DHT22;24016;52.102;11.584;2023-03-03T04:02:50;-0.30;99.90
38209;DHT22;24016;52.102;11.584;2023-03-03T04:05:16;-0.40;99.90
38209;DHT22;24016;52.102;11.584;2023-03-03T04:07:42;-0.30;99.90
38209;DHT22;24016;52.102;11.584;2023-03-03T04:10:08;-0.30;99.90
38209;DHT22;24016;52.102;11.584;2023-03-03T04:12:33;-0.40;99.90
38209;DHT22;24016;52.102;11.584;2023-03-03T04:15:10;-0.30;99.90
38209;DHT22;24016;52.102;11.584;2023-03-03T04:17:36;-0.30;99.90
38209;DHT22;24016;52.102;11.584;2023-03-03T04:20:02;-0.30;99.90
38209;DHT22;24016;52.102;11.584;2023-03-03T04:22:28;-0.30;99.90
38209;DHT22;24016;52.102;11.584;2023-03-03T04:24:58;-0.30;99.90
38209;DHT22;24016;52.102;11.584;2023-03-03T04:27:24;-0.30;99.90
38209;DHT22;24016;52.102;11.584;2023-03-03T04:29:49;-0.20;99.90
38209;DHT22;24016;52.102;11.584;2023-03-03T04:32:15;-0.30;99.90
38209;DHT22;24016;52.102;11.584;2023-03-03T04:34:43;-0.30;99.90
38209;DHT22;24016;52.102;11.584;2023-03-03T04:37:09;-0.30;99.90
38209;DHT22;24016;52.102;11.584;2023-03-03T04:39:35;-0.30;99.90
38209;DHT22;24016;52.102;11.584;2023-03-03T04:42:01;-0.30;99.90
38209;DHT22;24016;52.102;11.584;2023-03-03T04:44:27;-0.30;99.90
38209;DHT22;24016;52.102;11.584;2023-03-03T04:46:52;-0.30;99.90
38209;DHT22;24016;52.102;11.584;2023-03-03T04:49:18;-0.30;99.90
38209;DHT22;24016;52.102;11.584;2023-03-03T04:51:44;-0.30;99.90
38209;DHT22;24016;52.102;11.584;2023-03-03T04:54:09;-0.30;99.90
38209;DHT22;24016;52.102;11.584;2023-03-03T04:56:35;-0.20;99.90
38209;DHT22;24016;52.102;11.584;2023-03-03T04:59:00;-0.20;99.90
38209;DHT22;24016;52.102;11.584;2023-03-03T05:01:26;-0.20;99.90
38209;DHT22;24016;52.102;11.584;2023-03-03T05:03:51;-0.20;99.90
38209;DHT22;24016;52.102;11.584;2023-03-03T05:06:17;-0.20;99.90
38209;DHT22;24016;52.102;11.584;2023-03-03T05:08:43;-0.20;99.90
38209;DHT22;24016;52.102;11.584;2023-03-03T05:11:09;-0.20;99.90
38209;DHT22;24016;52.102;11.584;2023-03-03T05:13:35;-0.20;99.90
38209;DHT22;24016;52.102;11.584;2023-03-03T05:16:01;-0.20;99.90
38209;DHT22;24016;52.102;11.584;2023-03-03T05:18:27;-0.20;99.90
38209;DHT22;24016;52.102;11.584;2023-03-03T05:20:53;-0.20;99.90
38209;DHT22;24016;52.102;11.584;2023-03-03T05:23:19;-0.20;99.90
38209;DHT22;24016;52.102;11.584;2023-03-03T05:25:49;-0.20;99.90
38209;DHT22;24016;52.102;11.584;2023-03-03T05:28:15;-0.20;99.90
38209;DHT22;24016;52.102;11.584;2023-03-03T05:30:41;-0.20;99.90
38209;DHT22;24016;52.102;11.584;2023-03-03T05:33:06;-0.20;99.90
38209;DHT22;24016;52.102;11.584;2023-03-03T05:35:32;-0.20;99.90
38209;DHT22;24016;52.102;11.584;2023-03-03T05:37:58;-0.20;99.90
38209;DHT22;24016;52.102;11.584;2023-03-03T05:40:25;-0.20;99.90
38209;DHT22;24016;52.102;11.584;2023-03-03T05:42:51;-0.20;99.90
38209;DHT22;24016;52.102;11.584;2023-03-03T05:45:17;-0.20;99.90
38209;DHT22;24016;52.102;11.584;2023-03-03T05:47:49;-0.20;99.90
38209;DHT22;24016;52.102;11.584;2023-03-03T05:50:15;-0.20;99.90
38209;DHT22;24016;52.102;11.584;2023-03-03T05:52:40;-0.20;99.90
38209;DHT22;24016;52.102;11.584;2023-03-03T05:55:06;-0.20;99.90
38209;DHT22;24016;52.102;11.584;2023-03-03T05:57:32;-0.20;99.90
38209;DHT22;24016;52.102;11.584;2023-03-03T06:00:00;-0.20;99.90
38209;DHT22;24016;52.102;11.584;2023-03-03T06:02:26;-0.20;99.90
38209;DHT22;24016;52.102;11.584;2023-03-03T06:04:51;-0.10;99.90
38209;DHT22;24016;52.102;11.584;2023-03-03T06:07:17;-0.20;99.90
38209;DHT22;24016;52.102;11.584;2023-03-03T06:09:42;-0.10;99.90
38209;DHT22;24016;52.102;11.584;2023-03-03T06:12:08;-0.10;99.90
38209;DHT22;24016;52.102;11.584;2023-03-03T06:14:33;-0.10;99.90
38209;DHT22;24016;52.102;11.584;2023-03-03T06:16:59;-0.10;99.90
38209;DHT22;24016;52.102;11.584;2023-03-03T06:19:25;-0.10;99.90
38209;DHT22;24016;52.102;11.584;2023-03-03T06:21:51;-0.10;99.90
38209;DHT22;24016;52.102;11.584;2023-03-03T06:24:16;-0.10;99.90
38209;DHT22;24016;52.102;11.584;2023-03-03T06:26:42;-0.10;99.90
38209;DHT22;24016;52.102;11.584;2023-03-03T06:29:07;-0.10;99.90
38209;DHT22;24016;52.102;11.584;2023-03-03T06:31:33;-0.10;99.90
38209;DHT22;24016;52.102;11.584;2023-03-03T06:33:59;0.00;99.90
38209;DHT22;24016;52.102;11.584;2023-03-03T06:36:25;0.00;99.90
38209;DHT22;24016;52.102;11.584;2023-03-03T06:38:51;0.00;99.90
38209;DHT22;24016;52.102;11.584;2023-03-03T06:41:18;0.00;99.90
38209;DHT22;24016;52.102;11.584;2023-03-03T06:43:43;0.00;99.90
38209;DHT22;24016;52.102;11.584;2023-03-03T06:46:09;0.00;99.90
38209;DHT22;24016;52.102;11.584;2023-03-03T06:48:34;0.00;99.90
38209;DHT22;24016;52.102;11.584;2023-03-03T06:51:01;0.00;99.90
38209;DHT22;24016;52.102;11.584;2023-03-03T06:53:27;0.10;99.90
38209;DHT22;24016;52.102;11.584;2023-03-03T06:55:57;0.10;99.90
38209;DHT22;24016;52.102;11.584;2023-03-03T06:58:23;0.10;99.90
38209;DHT22;24016;52.102;11.584;2023-03-03T07:00:59;0.20;99.90
38209;DHT22;24016;52.102;11.584;2023-03-03T07:03:30;0.20;99.90
38209;DHT22;24016;52.102;11.584;2023-03-03T07:05:57;0.20;99.90
38209;DHT22;24016;52.102;11.584;2023-03-03T07:08:24;0.20;99.90
38209;DHT22;24016;52.102;11.584;2023-03-03T07:10:51;0.20;99.90
38209;DHT22;24016;52.102;11.584;2023-03-03T07:13:25;0.30;99.90
38209;DHT22;24016;52.102;11.584;2023-03-03T07:15:53;0.30;99.90
38209;DHT22;24016;52.102;11.584;2023-03-03T07:18:35;0.30;99.90
38209;DHT22;24016;52.102;11.584;2023-03-03T07:21:13;0.40;99.90
38209;DHT22;24016;52.102;11.584;2023-03-03T07:23:39;0.40;99.90
38209;DHT22;24016;52.102;11.584;2023-03-03T07:26:12;0.40;99.90
38209;DHT22;24016;52.102;11.584;2023-03-03T07:28:41;0.40;99.90
38209;DHT22;24016;52.102;11.584;2023-03-03T07:31:25;0.40;99.90
38209;DHT22;24016;52.102;11.584;2023-03-03T07:33:51;0.50;99.90
38209;DHT22;24016;52.102;11.584;2023-03-03T07:36:34;0.60;99.90
38209;DHT22;24016;52.102;11.584;2023-03-03T07:39:03;0.60;99.90
38209;DHT22;24016;52.102;11.584;2023-03-03T07:41:33;0.60;99.90
38209;DHT22;24016;52.102;11.584;2023-03-03T07:44:12;0.70;99.90
38209;DHT22;24016;52.102;11.584;2023-03-03T07:46:47;0.70;99.90
38209;DHT22;24016;52.102;11.584;2023-03-03T07:49:22;0.60;99.90
38209;DHT22;24016;52.102;11.584;2023-03-03T07:51:51;0.70;99.90
38209;DHT22;24016;52.102;11.584;2023-03-03T07:54:33;0.60;99.90
38209;DHT22;24016;52.102;11.584;2023-03-03T07:59:34;0.70;99.90
38209;DHT22;24016;52.102;11.584;2023-03-03T08:02:01;0.80;99.90
38209;DHT22;24016;52.102;11.584;2023-03-03T08:04:46;0.90;99.90
38209;DHT22;24016;52.102;11.584;2023-03-03T08:07:17;0.90;99.90
38209;DHT22;24016;52.102;11.584;2023-03-03T08:09:49;0.90;99.90
38209;DHT22;24016;52.102;11.584;2023-03-03T08:12:27;0.90;99.90
38209;DHT22;24016;52.102;11.584;2023-03-03T08:14:53;0.90;99.90
38209;DHT22;24016;52.102;11.584;2023-03-03T08:17:34;0.90;99.90
38209;DHT22;24016;52.102;11.584;2023-03-03T08:20:00;1.00;99.90
38209;DHT22;24016;52.102;11.584;2023-03-03T08:22:32;1.00;99.90
38209;DHT22;24016;52.102;11.584;2023-03-03T08:25:00;1.10;99.90
38209;DHT22;24016;52.102;11.584;2023-03-03T08:27:25;1.20;99.90
38209;DHT22;24016;52.102;11.584;2023-03-03T08:29:51;1.30;99.90
38209;DHT22;24016;52.102;11.584;2023-03-03T08:32:16;1.20;99.90
38209;DHT22;24016;52.102;11.584;2023-03-03T08:34:42;1.10;99.90
38209;DHT22;24016;52.102;11.584;2023-03-03T08:37:07;1.00;99.90
38209;DHT22;24016;52.102;11.584;2023-03-03T08:39:33;1.00;99.90
38209;DHT22;24016;52.102;11.584;2023-03-03T08:41:58;1.20;99.90
38209;DHT22;24016;52.102;11.584;2023-03-03T08:44:24;1.10;99.90
38209;DHT22;24016;52.102;11.584;2023-03-03T08:46:49;1.10;99.90
38209;DHT22;24016;52.102;11.584;2023-03-03T08:49:15;1.20;99.90
38209;DHT22;24016;52.102;11.584;2023-03-03T08:51:41;1.20;99.90
38209;DHT22;24016;52.102;11.584;2023-03-03T08:54:06;1.20;99.90
38209;DHT22;24016;52.102;11.584;2023-03-03T08:56:32;1.30;99.90
38209;DHT22;24016;52.102;11.584;2023-03-03T08:58:57;1.40;99.90
38209;DHT22;24016;52.102;11.584;2023-03-03T09:01:23;1.50;99.90
38209;DHT22;24016;52.102;11.584;2023-03-03T09:03:48;1.70;99.90
38209;DHT22;24016;52.102;11.584;2023-03-03T09:06:14;1.70;99.90
38209;DHT22;24016;52.102;11.584;2023-03-03T09:08:39;1.80;99.90
38209;DHT22;24016;52.102;11.584;2023-03-03T09:11:11;1.70;99.90
38209;DHT22;24016;52.102;11.584;2023-03-03T09:13:37;1.70;99.90
38209;DHT22;24016;52.102;11.584;2023-03-03T09:16:10;1.70;99.90
38209;DHT22;24016;52.102;11.584;2023-03-03T09:18:37;1.80;99.90
38209;DHT22;24016;52.102;11.584;2023-03-03T09:21:25;1.80;99.90
38209;DHT22;24016;52.102;11.584;2023-03-03T09:23:56;1.70;99.90
38209;DHT22;24016;52.102;11.584;2023-03-03T09:26:46;1.70;99.90
38209;DHT22;24016;52.102;11.584;2023-03-03T09:29:16;1.70;99.90
38209;DHT22;24016;52.102;11.584;2023-03-03T09:31:44;1.80;99.90
38209;DHT22;24016;52.102;11.584;2023-03-03T09:34:20;1.90;99.90
38209;DHT22;24016;52.102;11.584;2023-03-03T09:36:47;2.10;99.90
38209;DHT22;24016;52.102;11.584;2023-03-03T09:44:44;2.10;99.90
38209;DHT22;24016;52.102;11.584;2023-03-03T09:53:14;2.20;99.90
38209;DHT22;24016;52.102;11.584;2023-03-03T10:01:35;2.10;99.90
38209;DHT22;24016;52.102;11.584;2023-03-03T10:04:28;2.20;99.90
38209;DHT22;24016;52.102;11.584;2023-03-03T10:07:26;2.40;99.90
38209;DHT22;24016;52.102;11.584;2023-03-03T10:12:53;2.50;99.90
38209;DHT22;24016;52.102;11.584;2023-03-03T10:15:46;2.60;99.90
38209;DHT22;24016;52.102;11.584;2023-03-03T10:19:06;2.60;99.90
38209;DHT22;24016;52.102;11.584;2023-03-03T10:21:15;2.70;99.90
38209;DHT22;24016;52.102;11.584;2023-03-03T10:26:41;2.70;99.90
38209;DHT22;24016;52.102;11.584;2023-03-03T10:29:34;2.80;99.90
38209;DHT22;24016;52.102;11.584;2023-03-03T10:37:47;2.90;99.90
38209;DHT22;24016;52.102;11.584;2023-03-03T10:40:46;3.00;99.90
38209;DHT22;24016;52.102;11.584;2023-03-03T10:43:41;3.20;99.90
38209;DHT22;24016;52.102;11.584;2023-03-03T10:51:36;3.10;99.90
38209;DHT22;24016;52.102;11.584;2023-03-03T10:57:36;3.00;99.90
38209;DHT22;24016;52.102;11.584;2023-03-03T11:00:20;3.00;99.90
38209;DHT22;24016;52.102;11.584;2023-03-03T11:06:04;3.30;99.90
38209;DHT22;24016;52.102;11.584;2023-03-03T11:08:37;3.50;99.90
38209;DHT22;24016;52.102;11.584;2023-03-03T11:11:10;3.50;99.90
38209;DHT22;24016;52.102;11.584;2023-03-03T11:13:53;3.60;99.90
38209;DHT22;24016;52.102;11.584;2023-03-03T11:16:34;3.60;99.90
38209;DHT22;24016;52.102;11.584;2023-03-03T11:19:08;3.60;99.90
38209;DHT22;24016;52.102;11.584;2023-03-03T11:24:56;3.70;99.90
38209;DHT22;24016;52.102;11.584;2023-03-03T11:27:55;3.70;99.90
38209;DHT22;24016;52.102;11.584;2023-03-03T11:30:27;3.80;99.90
38209;DHT22;24016;52.102;11.584;2023-03-03T11:33:02;3.90;99.90
38209;DHT22;24016;52.102;11.584;2023-03-03T11:36:03;3.90;99.90
38209;DHT22;24016;52.102;11.584;2023-03-03T11:39:19;4.20;99.90
38209;DHT22;24016;52.102;11.584;2023-03-03T11:41:28;4.60;99.90
38209;DHT22;24016;52.102;11.584;2023-03-03T11:44:21;4.70;99.90
38209;DHT22;24016;52.102;11.584;2023-03-03T11:46:59;4.70;99.90
38209;DHT22;24016;52.102;11.584;2023-03-03T11:52:54;4.20;99.90
38209;DHT22;24016;52.102;11.584;2023-03-03T11:58:11;3.90;99.90
38209;DHT22;24016;52.102;11.584;2023-03-03T12:00:50;4.10;99.90
38209;DHT22;24016;52.102;11.584;2023-03-03T12:09:17;4.40;99.90
38209;DHT22;24016;52.102;11.584;2023-03-03T12:12:06;4.50;99.90
38209;DHT22;24016;52.102;11.584;2023-03-03T12:17:35;5.30;99.90
38209;DHT22;24016;52.102;11.584;2023-03-03T12:25:31;4.70;99.90
38209;DHT22;24016;52.102;11.584;2023-03-03T12:28:17;4.60;99.90
38209;DHT22;24016;52.102;11.584;2023-03-03T12:31:03;4.70;99.90
38209;DHT22;24016;52.102;11.584;2023-03-03T12:33:48;4.60;99.90
38209;DHT22;24016;52.102;11.584;2023-03-03T12:36:17;4.50;99.90
38209;DHT22;24016;52.102;11.584;2023-03-03T12:38:58;4.20;99.90
38209;DHT22;24016;52.102;11.584;2023-03-03T12:41:43;4.00;99.90
38209;DHT22;24016;52.102;11.584;2023-03-03T12:44:34;4.00;99.90
38209;DHT22;24016;52.102;11.584;2023-03-03T12:47:38;4.20;99.90
38209;DHT22;24016;52.102;11.584;2023-03-03T12:50:28;4.50;99.90
38209;DHT22;24016;52.102;11.584;2023-03-03T12:55:48;5.10;99.90
38209;DHT22;24016;52.102;11.584;2023-03-03T13:01:20;5.20;99.90
38209;DHT22;24016;52.102;11.584;2023-03-03T13:06:45;5.40;99.90
38209;DHT22;24016;52.102;11.584;2023-03-03T13:09:28;5.40;99.90
38209;DHT22;24016;52.102;11.584;2023-03-03T13:12:20;5.20;99.90
38209;DHT22;24016;52.102;11.584;2023-03-03T13:15:09;5.10;99.90
38209;DHT22;24016;52.102;11.584;2023-03-03T13:17:56;4.90;99.90
38209;DHT22;24016;52.102;11.584;2023-03-03T13:20:32;5.00;99.90
38209;DHT22;24016;52.102;11.584;2023-03-03T13:23:09;5.20;99.90
38209;DHT22;24016;52.102;11.584;2023-03-03T13:25:46;5.10;99.90
38209;DHT22;24016;52.102;11.584;2023-03-03T13:28:36;5.20;99.90
38209;DHT22;24016;52.102;11.584;2023-03-03T13:31:12;5.40;99.90
38209;DHT22;24016;52.102;11.584;2023-03-03T13:33:42;5.60;99.90
38209;DHT22;24016;52.102;11.584;2023-03-03T13:36:14;5.70;99.90
38209;DHT22;24016;52.102;11.584;2023-03-03T13:38:51;6.00;99.90
38209;DHT22;24016;52.102;11.584;2023-03-03T13:41:39;6.30;99.90
38209;DHT22;24016;52.102;11.584;2023-03-03T13:44:13;6.40;99.90
38209;DHT22;24016;52.102;11.584;2023-03-03T13:47:14;6.70;99.90
38209;DHT22;24016;52.102;11.584;2023-03-03T13:52:23;6.30;99.90
38209;DHT22;24016;52.102;11.584;2023-03-03T13:55:20;6.20;99.90
38209;DHT22;24016;52.102;11.584;2023-03-03T13:57:51;6.30;99.90
38209;DHT22;24016;52.102;11.584;2023-03-03T14:03:21;5.90;99.90
38209;DHT22;24016;52.102;11.584;2023-03-03T14:05:56;5.70;99.90
38209;DHT22;24016;52.102;11.584;2023-03-03T14:11:46;5.20;99.90
38209;DHT22;24016;52.102;11.584;2023-03-03T14:14:29;5.00;99.90
38209;DHT22;24016;52.102;11.584;2023-03-03T14:17:03;4.90;99.90
38209;DHT22;24016;52.102;11.584;2023-03-03T14:19:39;4.90;99.90
38209;DHT22;24016;52.102;11.584;2023-03-03T14:22:19;4.80;99.90
38209;DHT22;24016;52.102;11.584;2023-03-03T14:25:10;4.90;99.90
38209;DHT22;24016;52.102;11.584;2023-03-03T14:27:53;4.90;99.90
38209;DHT22;24016;52.102;11.584;2023-03-03T14:30:41;4.80;99.90
38209;DHT22;24016;52.102;11.584;2023-03-03T14:35:38;4.80;99.90
38209;DHT22;24016;52.102;11.584;2023-03-03T14:40:34;4.80;99.90
38209;DHT22;24016;52.102;11.584;2023-03-03T14:43:05;4.70;99.90
38209;DHT22;24016;52.102;11.584;2023-03-03T14:45:43;4.60;99.90
38209;DHT22;24016;52.102;11.584;2023-03-03T14:48:23;4.40;99.90
38209;DHT22;24016;52.102;11.584;2023-03-03T14:50:52;4.40;99.90
38209;DHT22;24016;52.102;11.584;2023-03-03T14:53:29;4.30;99.90
38209;DHT22;24016;52.102;11.584;2023-03-03T14:56:20;4.30;99.90
38209;DHT22;24016;52.102;11.584;2023-03-03T14:58:47;4.20;99.90
38209;DHT22;24016;52.102;11.584;2023-03-03T15:01:30;4.00;99.90
38209;DHT22;24016;52.102;11.584;2023-03-03T15:04:02;3.90;99.90
38209;DHT22;24016;52.102;11.584;2023-03-03T15:09:44;3.70;99.90
38209;DHT22;24016;52.102;11.584;2023-03-03T15:11:45;3.70;99.90
38209;DHT22;24016;52.102;11.584;2023-03-03T15:14:18;3.80;99.90
38209;DHT22;24016;52.102;11.584;2023-03-03T15:16:44;3.80;99.90
38209;DHT22;24016;52.102;11.584;2023-03-03T15:21:56;4.00;99.90
38209;DHT22;24016;52.102;11.584;2023-03-03T15:24:37;4.00;99.90
38209;DHT22;24016;52.102;11.584;2023-03-03T15:27:11;4.00;99.90
38209;DHT22;24016;52.102;11.584;2023-03-03T15:30:24;4.10;99.90
38209;DHT22;24016;52.102;11.584;2023-03-03T15:33:18;4.10;99.90
38209;DHT22;24016;52.102;11.584;2023-03-03T15:38:45;3.90;99.90
38209;DHT22;24016;52.102;11.584;2023-03-03T15:42:10;3.80;99.90
38209;DHT22;24016;52.102;11.584;2023-03-03T15:50:34;3.80;99.90
38209;DHT22;24016;52.102;11.584;2023-03-03T15:53:18;3.70;99.90
38209;DHT22;24016;52.102;11.584;2023-03-03T16:02:17;3.40;99.90
38209;DHT22;24016;52.102;11.584;2023-03-03T16:05:02;3.30;99.90
38209;DHT22;24016;52.102;11.584;2023-03-03T16:07:47;3.20;99.90
38209;DHT22;24016;52.102;11.584;2023-03-03T16:13:19;3.10;99.90
38209;DHT22;24016;52.102;11.584;2023-03-03T16:16:12;3.00;99.90
38209;DHT22;24016;52.102;11.584;2023-03-03T16:21:22;2.90;99.90
38209;DHT22;24016;52.102;11.584;2023-03-03T16:24:19;2.80;99.90
38209;DHT22;24016;52.102;11.584;2023-03-03T16:26:47;2.70;99.90
38209;DHT22;24016;52.102;11.584;2023-03-03T16:29:31;2.60;99.90
38209;DHT22;24016;52.102;11.584;2023-03-03T16:35:14;2.40;99.90
38209;DHT22;24016;52.102;11.584;2023-03-03T16:38:03;2.30;99.90
38209;DHT22;24016;52.102;11.584;2023-03-03T16:40:42;2.10;99.90
38209;DHT22;24016;52.102;11.584;2023-03-03T16:43:21;2.10;99.90
38209;DHT22;24016;52.102;11.584;2023-03-03T16:45:49;1.90;99.90
38209;DHT22;24016;52.102;11.584;2023-03-03T16:48:40;1.80;99.90
38209;DHT22;24016;52.102;11.584;2023-03-03T16:54:00;1.70;99.90
38209;DHT22;24016;52.102;11.584;2023-03-03T16:56:46;1.60;99.90
38209;DHT22;24016;52.102;11.584;2023-03-03T16:59:44;1.50;99.90
38209;DHT22;24016;52.102;11.584;2023-03-03T17:04:46;1.30;99.90
38209;DHT22;24016;52.102;11.584;2023-03-03T17:10:04;1.20;99.90
38209;DHT22;24016;52.102;11.584;2023-03-03T17:12:55;1.10;99.90
38209;DHT22;24016;52.102;11.584;2023-03-03T17:15:48;1.00;99.90
38209;DHT22;24016;52.102;11.584;2023-03-03T17:18:29;0.90;99.90
38209;DHT22;24016;52.102;11.584;2023-03-03T17:21:01;0.90;99.90
38209;DHT22;24016;52.102;11.584;2023-03-03T17:23:55;0.90;99.90
38209;DHT22;24016;52.102;11.584;2023-03-03T17:32:31;0.70;99.90
38209;DHT22;24016;52.102;11.584;2023-03-03T17:35:21;0.70;99.90
38209;DHT22;24016;52.102;11.584;2023-03-03T17:38:17;0.60;99.90
38209;DHT22;24016;52.102;11.584;2023-03-03T17:41:10;0.60;99.90
38209;DHT22;24016;52.102;11.584;2023-03-03T17:44:01;0.50;99.90
38209;DHT22;24016;52.102;11.584;2023-03-03T17:47:04;0.50;99.90
38209;DHT22;24016;52.102;11.584;2023-03-03T18:04:02;0.40;99.90
38209;DHT22;24016;52.102;11.584;2023-03-03T18:06:35;0.50;99.90
38209;DHT22;24016;52.102;11.584;2023-03-03T18:14:59;0.60;99.90
38209;DHT22;24016;52.102;11.584;2023-03-03T18:20:53;0.50;99.90
38209;DHT22;24016;52.102;11.584;2023-03-03T18:23:34;0.50;99.90
38209;DHT22;24016;52.102;11.584;2023-03-03T18:34:30;0.10;99.90
38209;DHT22;24016;52.102;11.584;2023-03-03T18:42:36;0.10;99.90
38209;DHT22;24016;52.102;11.584;2023-03-03T18:48:11;0.10;99.90
38209;DHT22;24016;52.102;11.584;2023-03-03T18:50:45;0.00;99.90
38209;DHT22;24016;52.102;11.584;2023-03-03T18:53:16;0.00;99.90
38209;DHT22;24016;52.102;11.584;2023-03-03T18:55:50;0.00;99.90
38209;DHT22;24016;52.102;11.584;2023-03-03T19:00:46;0.00;99.90
38209;DHT22;24016;52.102;11.584;2023-03-03T19:06:09;-0.10;99.90